Time;durP1;ratioP1;P1;durP2;ratioP2;P2;SDS_P1;SDS_P2;PMS_P1;PMS_P2;Temp;Humidity;BMP_temperature;BMP_pressure;BME280_temperature;BME280_humidity;BME280_pressure;Samples;Min_cycle;Max_cycle;Signal;HPM_P1;HPM_P2
2022/06/08 00:01:54;;;;;;;1.45;1.40;;;;;;;;;;5064747;28;20198;-70
2022/06/08 00:04:23;;;;;;;2.90;1.50;;;;;;;;;;5064419;28;20535;-70
2022/06/08 00:06:49;;;;;;;2.17;1.40;;;;;;;;;;5064318;28;20221;-70
2022/06/08 00:09:15;;;;;;;1.52;1.40;;;;;;;;;;5064734;28;20201;-70
2022/06/08 00:11:41;;;;;;;6.20;1.60;;;;;;;;;;5064644;28;20197;-70
2022/06/08 00:14:09;;;;;;;2.03;1.50;;;;;;;;;;5064433;28;20575;-70
2022/06/08 00:16:35;;;;;;;2.72;1.67;;;;;;;;;;5064236;28;20204;-70
2022/06/08 00:19:02;;;;;;;1.50;1.25;;;;;;;;;;5064386;28;20209;-70
2022/06/08 00:21:28;;;;;;;3.00;1.70;;;;;;;;;;5064365;28;20198;-70
2022/06/08 00:23:55;;;;;;;2.30;1.40;;;;;;;;;;5064486;28;20509;-70
2022/06/08 00:26:21;;;;;;;1.90;1.65;;;;;;;;;;5064073;28;20225;-70
2022/06/08 00:28:48;;;;;;;7.72;1.50;;;;;;;;;;5064223;28;20197;-70
2022/06/08 00:31:15;;;;;;;1.30;1.23;;;;;;;;;;5064530;28;20201;-70
2022/06/08 00:33:41;;;;;;;1.95;1.50;;;;;;;;;;5064131;28;20204;-70
2022/06/08 00:36:08;;;;;;;1.80;1.33;;;;;;;;;;5063789;28;20228;-70
2022/06/08 00:38:35;;;;;;;2.05;1.20;;;;;;;;;;5063983;28;20203;-70
2022/06/08 00:41:06;;;;;;;1.38;1.23;;;;;;;;;;5064127;28;20242;-70
2022/06/08 00:43:33;;;;;;;1.58;1.08;;;;;;;;;;5064000;28;20534;-70
2022/06/08 00:45:59;;;;;;;4.22;1.50;;;;;;;;;;5063628;28;20193;-70
2022/06/08 00:48:30;;;;;;;2.40;1.60;;;;;;;;;;5063969;28;20205;-70
2022/06/08 00:50:57;;;;;;;2.60;1.40;;;;;;;;;;5063807;28;20204;-70
2022/06/08 00:53:26;;;;;;;5.20;1.52;;;;;;;;;;5063802;28;20243;-70
2022/06/08 00:55:52;;;;;;;1.75;1.38;;;;;;;;;;5063663;28;20298;-70
2022/06/08 00:58:21;;;;;;;2.05;1.60;;;;;;;;;;5063333;28;20197;-70
2022/06/08 01:00:47;;;;;;;3.38;1.67;;;;;;;;;;5063623;28;20197;-70
2022/06/08 01:03:15;;;;;;;4.72;1.40;;;;;;;;;;5063736;28;20212;-70
2022/06/08 01:05:44;;;;;;;1.67;1.55;;;;;;;;;;5062967;28;20236;-70
2022/06/08 01:08:17;;;;;;;3.63;1.70;;;;;;;;;;5063348;28;20197;-70
2022/06/08 01:10:44;;;;;;;4.03;1.40;;;;;;;;;;5063566;28;20205;-70
2022/06/08 01:13:10;;;;;;;4.10;1.70;;;;;;;;;;5063362;28;20201;-70
2022/06/08 01:15:37;;;;;;;2.92;1.55;;;;;;;;;;5063431;28;20221;-70
2022/06/08 01:18:04;;;;;;;4.22;1.38;;;;;;;;;;5063261;28;20504;-69
2022/06/08 01:20:30;;;;;;;2.28;1.63;;;;;;;;;;5063360;28;20208;-70
2022/06/08 01:22:58;;;;;;;1.75;1.63;;;;;;;;;;5063331;28;20198;-70
2022/06/08 01:25:25;;;;;;;3.65;1.70;;;;;;;;;;5063060;28;20240;-70
2022/06/08 01:27:56;;;;;;;2.42;1.60;;;;;;;;;;5062809;28;20204;-70
2022/06/08 01:30:24;;;;;;;5.10;1.70;;;;;;;;;;5063227;28;20203;-70
2022/06/08 01:33:14;;;;;;;1.88;1.73;;;;;;;;;;5063363;28;20201;-70
2022/06/08 01:35:47;;;;;;;4.32;1.38;;;;;;;;;;5052502;28;20217;-70
2022/06/08 01:38:17;;;;;;;5.28;1.70;;;;;;;;;;5062626;28;20212;-70
2022/06/08 01:40:55;;;;;;;1.95;1.77;;;;;;;;;;5063072;28;20203;-70
2022/06/08 01:43:27;;;;;;;2.45;2.08;;;;;;;;;;5062877;28;20539;-70
2022/06/08 01:45:56;;;;;;;4.68;2.47;;;;;;;;;;5062180;28;20215;-70
2022/06/08 01:48:31;;;;;;;2.10;2.00;;;;;;;;;;5062644;28;20201;-70
2022/06/08 01:51:03;;;;;;;2.40;2.20;;;;;;;;;;5063001;28;20495;-70
2022/06/08 01:53:36;;;;;;;4.00;2.47;;;;;;;;;;5062865;28;20197;-70
2022/06/08 01:56:07;;;;;;;2.50;2.30;;;;;;;;;;5062527;28;20213;-70
2022/06/08 01:58:40;;;;;;;2.97;2.47;;;;;;;;;;5062570;28;20211;-70
2022/06/08 02:01:12;;;;;;;3.25;2.58;;;;;;;;;;5062493;28;20211;-70
2022/06/08 02:03:42;;;;;;;3.40;2.47;;;;;;;;;;5062654;28;20197;-70
2022/06/08 02:06:10;;;;;;;2.45;2.25;;;;;;;;;;5062183;28;20229;-70
2022/06/08 02:08:43;;;;;;;3.47;3.22;;;;;;;;;;5062125;28;20197;-70
2022/06/08 02:11:13;;;;;;;4.43;3.15;;;;;;;;;;5062339;28;20197;-70
2022/06/08 02:13:44;;;;;;;4.25;3.30;;;;;;;;;;5062534;28;20204;-70
2022/06/08 02:16:12;;;;;;;3.45;3.22;;;;;;;;;;5061468;28;20227;-70
2022/06/08 02:18:41;;;;;;;5.30;3.10;;;;;;;;;;5062557;28;20526;-70
2022/06/08 02:21:10;;;;;;;4.53;2.65;;;;;;;;;;5062302;28;20204;-70
2022/06/08 02:23:41;;;;;;;2.60;2.40;;;;;;;;;;5062311;28;20205;-70
2022/06/08 02:26:13;;;;;;;3.08;2.88;;;;;;;;;;5061891;28;20200;-70
2022/06/08 02:28:40;;;;;;;3.13;2.42;;;;;;;;;;5062176;28;20201;-70
2022/06/08 02:31:09;;;;;;;2.88;2.63;;;;;;;;;;5062257;28;20461;-70
2022/06/08 02:36:28;;;;;;;5.07;2.70;;;;;;;;;;5061692;28;20555;-70
2022/06/08 02:38:58;;;;;;;6.68;3.17;;;;;;;;;;5062291;28;20197;-70
2022/06/08 02:41:26;;;;;;;3.22;2.50;;;;;;;;;;5062186;28;20201;-70
2022/06/08 02:43:56;;;;;;;2.70;2.50;;;;;;;;;;5062067;28;20204;-70
2022/06/08 02:46:25;;;;;;;4.85;2.58;;;;;;;;;;5061833;28;20233;-70
2022/06/08 02:48:51;;;;;;;2.53;2.42;;;;;;;;;;5061888;28;20204;-70
2022/06/08 02:51:23;;;;;;;2.80;2.42;;;;;;;;;;5062008;28;20558;-70
2022/06/08 02:53:53;;;;;;;4.70;2.08;;;;;;;;;;5061861;28;20216;-70
2022/06/08 02:56:24;;;;;;;3.05;2.70;;;;;;;;;;5061557;28;20228;-70
2022/06/08 02:58:54;;;;;;;2.97;2.63;;;;;;;;;;5062209;28;20210;-70
2022/06/08 03:01:23;;;;;;;2.92;2.65;;;;;;;;;;5061793;28;20196;-70
2022/06/08 03:03:51;;;;;;;3.97;2.72;;;;;;;;;;5062103;28;20204;-70
2022/06/08 03:06:19;;;;;;;2.40;2.20;;;;;;;;;;5061582;28;20224;-70
2022/06/08 03:08:49;;;;;;;5.68;2.33;;;;;;;;;;5061864;28;20207;-70
2022/06/08 03:11:16;;;;;;;6.72;2.90;;;;;;;;;;5061764;28;20197;-70
2022/06/08 03:13:45;;;;;;;2.55;2.42;;;;;;;;;;5061734;28;20197;-70
2022/06/08 03:16:25;;;;;;;3.47;2.40;;;;;;;;;;5061611;28;20225;-70
2022/06/08 03:18:52;;;;;;;3.88;2.30;;;;;;;;;;5061977;28;20204;-70
2022/06/08 03:21:18;;;;;;;3.70;2.45;;;;;;;;;;5061740;28;20382;-70
2022/06/08 03:23:46;;;;;;;6.13;2.70;;;;;;;;;;5061803;28;20197;-70
2022/06/08 03:26:13;;;;;;;2.95;2.60;;;;;;;;;;5061493;28;20468;-70
2022/06/08 03:28:39;;;;;;;4.68;2.38;;;;;;;;;;5063989;28;20205;-70
2022/06/08 03:31:05;;;;;;;2.90;2.58;;;;;;;;;;5065520;28;20280;-70
2022/06/08 03:33:33;;;;;;;2.15;2.05;;;;;;;;;;5065454;28;20197;-70
2022/06/08 03:35:59;;;;;;;3.28;2.30;;;;;;;;;;5065416;28;20221;-70
2022/06/08 03:38:26;;;;;;;3.47;2.20;;;;;;;;;;5065094;28;20204;-70
2022/06/08 03:40:52;;;;;;;2.05;1.95;;;;;;;;;;5065145;28;20204;-70
2022/06/08 03:43:18;;;;;;;2.30;2.10;;;;;;;;;;5065249;28;20501;-70
2022/06/08 03:45:48;;;;;;;2.25;2.15;;;;;;;;;;5065395;28;20216;-70
2022/06/08 03:48:15;;;;;;;7.85;2.33;;;;;;;;;;5064746;28;20204;-70
2022/06/08 03:50:43;;;;;;;3.15;2.55;;;;;;;;;;5065060;28;20268;-70
2022/06/08 03:53:10;;;;;;;3.17;2.30;;;;;;;;;;5064862;28;20197;-70
2022/06/08 03:55:37;;;;;;;3.63;2.53;;;;;;;;;;5064814;28;20389;-70
2022/06/08 03:58:04;;;;;;;2.85;2.33;;;;;;;;;;5064657;28;20211;-70
2022/06/08 04:00:30;;;;;;;4.85;2.40;;;;;;;;;;5064840;28;20199;-70
2022/06/08 04:02:57;;;;;;;2.47;2.38;;;;;;;;;;5064898;28;20204;-70
2022/06/08 04:05:24;;;;;;;8.00;2.47;;;;;;;;;;5064556;28;20229;-70
2022/06/08 04:07:51;;;;;;;2.47;2.28;;;;;;;;;;5064382;28;20204;-69
2022/06/08 04:10:17;;;;;;;7.35;2.35;;;;;;;;;;5064505;28;20505;-70
2022/06/08 04:12:44;;;;;;;2.58;2.38;;;;;;;;;;5064771;28;20203;-70
2022/06/08 04:15:10;;;;;;;2.53;2.40;;;;;;;;;;5064545;28;20395;-70
2022/06/08 04:17:37;;;;;;;5.18;2.35;;;;;;;;;;5064169;28;20204;-70
2022/06/08 04:20:03;;;;;;;3.58;2.30;;;;;;;;;;5064589;28;20513;-70
2022/06/08 04:22:31;;;;;;;2.33;2.17;;;;;;;;;;5064513;28;20197;-70
2022/06/08 04:24:59;;;;;;;1.95;1.85;;;;;;;;;;5064295;28;20242;-70
2022/06/08 04:27:26;;;;;;;4.43;2.63;;;;;;;;;;5064261;28;20197;-70
2022/06/08 04:29:53;;;;;;;3.33;2.45;;;;;;;;;;5064368;28;20189;-70
2022/06/08 04:32:19;;;;;;;6.82;2.53;;;;;;;;;;5064395;28;20387;-70
2022/06/08 04:34:46;;;;;;;3.17;2.75;;;;;;;;;;5064464;28;20197;-70
2022/06/08 04:37:12;;;;;;;5.82;3.15;;;;;;;;;;5063754;28;20221;-70
2022/06/08 04:39:38;;;;;;;6.68;3.20;;;;;;;;;;5063476;28;20197;-70
2022/06/08 04:42:07;;;;;;;2.88;2.50;;;;;;;;;;5064056;28;20202;-70
2022/06/08 04:44:33;;;;;;;2.63;2.53;;;;;;;;;;5064199;28;20204;-70
2022/06/08 04:47:00;;;;;;;4.65;2.95;;;;;;;;;;5063836;28;20454;-70
2022/06/08 04:49:27;;;;;;;4.93;2.85;;;;;;;;;;5064192;28;20196;-70
2022/06/08 04:51:53;;;;;;;2.88;2.67;;;;;;;;;;5063809;28;20197;-70
2022/06/08 04:54:19;;;;;;;2.95;2.67;;;;;;;;;;5063961;28;20204;-70
2022/06/08 04:56:46;;;;;;;2.20;2.10;;;;;;;;;;5063448;28;20231;-70
2022/06/08 04:59:13;;;;;;;4.88;2.38;;;;;;;;;;5063766;28;20243;-70
2022/06/08 05:01:39;;;;;;;5.93;2.20;;;;;;;;;;5063875;28;20197;-70
2022/06/08 05:04:06;;;;;;;3.03;2.35;;;;;;;;;;5063712;28;20201;-70
2022/06/08 05:06:32;;;;;;;2.63;2.33;;;;;;;;;;5063400;28;20213;-70
2022/06/08 05:08:58;;;;;;;2.15;2.00;;;;;;;;;;5063824;28;20512;-70
2022/06/08 05:11:24;;;;;;;3.63;2.35;;;;;;;;;;5063621;28;20220;-69
2022/06/08 05:13:51;;;;;;;2.13;1.98;;;;;;;;;;5063794;28;20205;-69
2022/06/08 05:16:19;;;;;;;4.20;2.30;;;;;;;;;;5063178;28;20531;-70
2022/06/08 05:18:45;;;;;;;4.03;2.28;;;;;;;;;;5063327;28;20197;-70
2022/06/08 05:21:11;;;;;;;2.05;1.90;;;;;;;;;;5063302;28;20504;-70
2022/06/08 05:23:39;;;;;;;2.42;2.03;;;;;;;;;;5063454;28;20197;-70
2022/06/08 05:26:08;;;;;;;3.42;2.15;;;;;;;;;;5063040;28;20193;-70
2022/06/08 05:28:34;;;;;;;2.00;1.90;;;;;;;;;;5062994;28;20204;-70
2022/06/08 05:31:00;;;;;;;4.85;2.05;;;;;;;;;;5063006;28;20197;-70
2022/06/08 05:33:28;;;;;;;6.80;2.15;;;;;;;;;;5063255;28;20197;-70
2022/06/08 05:35:55;;;;;;;3.40;2.25;;;;;;;;;;5063295;28;20221;-71
2022/06/08 05:38:21;;;;;;;6.00;2.70;;;;;;;;;;5063258;28;20367;-70
2022/06/08 05:40:48;;;;;;;6.13;2.53;;;;;;;;;;5063130;28;20509;-70
2022/06/08 05:43:15;;;;;;;2.83;2.33;;;;;;;;;;5062846;28;20220;-70
2022/06/08 05:45:42;;;;;;;3.95;2.30;;;;;;;;;;5062759;28;20219;-70
2022/06/08 05:48:09;;;;;;;6.88;2.47;;;;;;;;;;5062480;28;20197;-70
2022/06/08 05:50:37;;;;;;;3.60;2.40;;;;;;;;;;5062803;28;20400;-70
2022/06/08 05:53:05;;;;;;;2.40;2.20;;;;;;;;;;5062769;28;20220;-70
2022/06/08 05:55:31;;;;;;;3.75;2.00;;;;;;;;;;5062554;28;20220;-70
2022/06/08 05:57:57;;;;;;;2.70;2.15;;;;;;;;;;5062378;28;20197;-70
2022/06/08 06:00:25;;;;;;;4.70;2.00;;;;;;;;;;5062576;28;20374;-70
2022/06/08 06:02:52;;;;;;;3.42;1.90;;;;;;;;;;5062804;28;20224;-70
2022/06/08 06:05:20;;;;;;;3.00;1.60;;;;;;;;;;5062251;28;20231;-70
2022/06/08 06:07:47;;;;;;;1.40;1.40;;;;;;;;;;5059050;28;20199;-69
2022/06/08 06:10:17;;;;;;;4.32;2.20;;;;;;;;;;5051412;28;20220;-70
2022/06/08 06:12:43;;;;;;;3.88;1.60;;;;;;;;;;5053211;28;20291;-70
2022/06/08 06:15:11;;;;;;;5.10;1.58;;;;;;;;;;5056111;28;20201;-70
2022/06/08 06:17:37;;;;;;;2.15;1.88;;;;;;;;;;5050120;28;20225;-70
2022/06/08 06:20:04;;;;;;;9.77;1.90;;;;;;;;;;5054465;28;20223;-69
2022/06/08 06:22:32;;;;;;;3.47;1.77;;;;;;;;;;5056181;28;20213;-70
2022/06/08 06:24:59;;;;;;;4.80;2.00;;;;;;;;;;5056709;28;20208;-70
2022/06/08 06:27:26;;;;;;;5.72;1.98;;;;;;;;;;5056715;28;20219;-69
2022/06/08 06:29:52;;;;;;;3.88;2.28;;;;;;;;;;5056427;28;20215;-69
2022/06/08 06:32:22;;;;;;;3.72;2.13;;;;;;;;;;5056863;28;20209;-69
2022/06/08 06:34:48;;;;;;;4.32;2.40;;;;;;;;;;5056741;28;20216;-69
2022/06/08 06:37:14;;;;;;;3.50;2.35;;;;;;;;;;5056630;28;20228;-69
2022/06/08 06:39:40;;;;;;;12.70;8.55;;;;;;;;;;5057310;28;20216;-69
2022/06/08 06:42:14;;;;;;;2.47;2.03;;;;;;;;;;5057001;28;20200;-69
2022/06/08 06:44:41;;;;;;;2.00;1.90;;;;;;;;;;5056906;28;20454;-69
2022/06/08 06:47:07;;;;;;;7.10;2.25;;;;;;;;;;5056797;28;20208;-70
2022/06/08 06:49:33;;;;;;;3.65;1.65;;;;;;;;;;5056527;28;20209;-69
2022/06/08 06:52:00;;;;;;;5.00;2.03;;;;;;;;;;5056262;28;20402;-69
2022/06/08 06:54:26;;;;;;;5.93;2.30;;;;;;;;;;5056487;28;20216;-69
2022/06/08 06:56:52;;;;;;;2.50;1.75;;;;;;;;;;5058327;28;20235;-70
2022/06/08 06:59:21;;;;;;;5.25;1.70;;;;;;;;;;5059443;28;20512;-69
2022/06/08 07:01:47;;;;;;;7.47;2.30;;;;;;;;;;5056297;28;20544;-69
2022/06/08 07:04:14;;;;;;;3.92;2.08;;;;;;;;;;5059543;28;20213;-69
2022/06/08 07:06:41;;;;;;;3.13;2.05;;;;;;;;;;5060722;28;20304;-69
2022/06/08 07:09:07;;;;;;;2.38;1.77;;;;;;;;;;5058727;28;20280;-69
2022/06/08 07:11:35;;;;;;;3.95;1.75;;;;;;;;;;5060927;28;20205;-70
2022/06/08 07:14:03;;;;;;;3.95;2.47;;;;;;;;;;5061020;28;20213;-70
2022/06/08 07:16:31;;;;;;;4.30;1.90;;;;;;;;;;5060803;28;20347;-70
2022/06/08 07:18:57;;;;;;;7.78;1.52;;;;;;;;;;5060582;28;20232;-70
2022/06/08 07:21:23;;;;;;;5.72;1.70;;;;;;;;;;5060572;28;20216;-70
2022/06/08 07:23:50;;;;;;;4.90;1.90;;;;;;;;;;5060123;28;20535;-69
2022/06/08 07:26:17;;;;;;;4.85;1.77;;;;;;;;;;5059878;28;20205;-70
2022/06/08 07:28:44;;;;;;;3.90;1.70;;;;;;;;;;5060597;28;20605;-69
2022/06/08 07:31:11;;;;;;;4.35;1.88;;;;;;;;;;5059801;28;20243;-70
2022/06/08 07:33:42;;;;;;;4.28;1.40;;;;;;;;;;5059722;28;20216;-70
2022/06/08 07:36:08;;;;;;;5.82;2.47;;;;;;;;;;5055976;28;20208;-70
2022/06/08 07:38:34;;;;;;;3.28;1.90;;;;;;;;;;5059701;28;20209;-70
2022/06/08 07:41:01;;;;;;;2.28;1.23;;;;;;;;;;5059731;28;20209;-70
2022/06/08 07:43:27;;;;;;;4.78;1.88;;;;;;;;;;5060473;28;20408;-70
2022/06/08 07:45:53;;;;;;;2.65;1.65;;;;;;;;;;5060097;28;20205;-70
2022/06/08 07:51:05;;;;;;;4.70;1.60;;;;;;;;;;5059120;28;20461;-70
2022/06/08 07:53:31;;;;;;;3.60;1.20;;;;;;;;;;5054519;28;20220;-61
2022/06/08 07:55:57;;;;;;;5.13;1.10;;;;;;;;;;5058922;28;20543;-62
2022/06/08 07:58:24;;;;;;;1.77;1.27;;;;;;;;;;5059200;28;20637;-62
2022/06/08 08:00:50;;;;;;;4.47;1.38;;;;;;;;;;5058806;28;20901;-61
2022/06/08 08:03:17;;;;;;;3.10;1.20;;;;;;;;;;5058986;28;20213;-62
2022/06/08 08:05:43;;;;;;;3.13;1.08;;;;;;;;;;5058302;28;20439;-62
2022/06/08 08:08:12;;;;;;;3.03;1.40;;;;;;;;;;5058514;28;20213;-61
2022/06/08 08:10:38;;;;;;;3.20;1.25;;;;;;;;;;5058496;28;20209;-62
2022/06/08 08:13:07;;;;;;;3.83;1.63;;;;;;;;;;5058339;28;20435;-62
2022/06/08 08:15:33;;;;;;;2.03;1.30;;;;;;;;;;5057556;28;20271;-62
2022/06/08 08:18:00;;;;;;;2.60;1.33;;;;;;;;;;5058140;28;20232;-61
2022/06/08 08:20:28;;;;;;;6.03;1.30;;;;;;;;;;5058248;28;20215;-61
2022/06/08 08:22:55;;;;;;;2.42;1.38;;;;;;;;;;5058485;28;20228;-62
2022/06/08 08:25:23;;;;;;;3.90;1.58;;;;;;;;;;5058703;28;20216;-63
2022/06/08 08:27:50;;;;;;;7.88;1.98;;;;;;;;;;5058623;28;20512;-61
2022/06/08 08:30:18;;;;;;;3.05;1.20;;;;;;;;;;5058280;28;20513;-60
2022/06/08 08:32:44;;;;;;;4.95;1.80;;;;;;;;;;5058141;28;20215;-62
2022/06/08 08:35:11;;;;;;;4.20;2.13;;;;;;;;;;5058514;28;20220;-61
2022/06/08 08:37:37;;;;;;;1.85;1.45;;;;;;;;;;5058254;28;20225;-61
2022/06/08 08:40:04;;;;;;;3.35;1.17;;;;;;;;;;5057996;28;20209;-61
2022/06/08 08:42:32;;;;;;;1.25;1.15;;;;;;;;;;5058319;28;20533;-60
2022/06/08 08:44:59;;;;;;;6.05;1.20;;;;;;;;;;5058366;28;20209;-61
2022/06/08 08:47:38;;;;;;;4.57;1.30;;;;;;;;;;5057734;28;20427;-61
2022/06/08 08:50:10;;;;;;;3.55;1.30;;;;;;;;;;5057876;28;20591;-61
2022/06/08 08:52:40;;;;;;;4.78;1.30;;;;;;;;;;5058108;28;20424;-63
2022/06/08 08:55:24;;;;;;;7.20;1.50;;;;;;;;;;5058074;28;20217;-61
2022/06/08 08:57:56;;;;;;;2.80;1.27;;;;;;;;;;5058753;28;20560;-61
2022/06/08 09:00:29;;;;;;;2.10;1.25;;;;;;;;;;5047403;28;20421;-61
2022/06/08 09:05:42;;;;;;;2.10;1.30;;;;;;;;;;5041099;28;20275;-61
2022/06/08 09:08:10;;;;;;;2.00;0.95;;;;;;;;;;5060177;28;20204;-63
2022/06/08 09:10:37;;;;;;;3.20;1.10;;;;;;;;;;5045495;28;20222;-62
2022/06/08 09:13:05;;;;;;;3.15;1.23;;;;;;;;;;5040727;28;20205;-62
2022/06/08 09:15:46;;;;;;;5.75;1.63;;;;;;;;;;5052733;28;20284;-63
2022/06/08 09:18:29;;;;;;;6.18;1.35;;;;;;;;;;5060282;28;20228;-62
2022/06/08 09:20:55;;;;;;;4.32;1.58;;;;;;;;;;5060385;28;20204;-63
2022/06/08 09:23:25;;;;;;;3.97;1.20;;;;;;;;;;5060288;28;20541;-63
2022/06/08 09:26:05;;;;;;;9.70;2.85;;;;;;;;;;5059781;28;20416;-61
2022/06/08 09:28:35;;;;;;;2.50;1.50;;;;;;;;;;5060166;28;20201;-62
2022/06/08 09:31:01;;;;;;;3.03;1.08;;;;;;;;;;5060004;28;20419;-63
2022/06/08 09:33:32;;;;;;;6.43;1.85;;;;;;;;;;5060327;28;20201;-61
2022/06/08 09:36:05;;;;;;;2.90;1.20;;;;;;;;;;5059827;28;20271;-63
2022/06/08 09:38:35;;;;;;;3.75;1.33;;;;;;;;;;5059967;28;20263;-63
2022/06/08 09:41:05;;;;;;;3.10;0.85;;;;;;;;;;5060048;28;20200;-63
2022/06/08 09:43:43;;;;;;;4.18;1.17;;;;;;;;;;5059951;28;20201;-63
2022/06/08 09:46:11;;;;;;;3.28;1.38;;;;;;;;;;5059960;28;20212;-62
2022/06/08 09:51:37;;;;;;;3.50;1.67;;;;;;;;;;5059882;28;20204;-61
2022/06/08 09:54:09;;;;;;;4.05;1.10;;;;;;;;;;5059543;28;20205;-62
2022/06/08 09:56:41;;;;;;;2.40;1.15;;;;;;;;;;5059502;28;20204;-62
2022/06/08 09:59:17;;;;;;;3.22;1.73;;;;;;;;;;5059794;28;20334;-62
2022/06/08 10:01:46;;;;;;;3.95;1.00;;;;;;;;;;5059638;28;20204;-62
2022/06/08 10:04:21;;;;;;;6.07;1.23;;;;;;;;;;5059286;28;20205;-62
2022/06/08 10:06:53;;;;;;;1.95;1.05;;;;;;;;;;5059350;28;20228;-61
2022/06/08 10:09:25;;;;;;;4.47;0.90;;;;;;;;;;5059666;28;20422;-62
2022/06/08 10:11:56;;;;;;;2.40;1.00;;;;;;;;;;5059668;28;20276;-61
2022/06/08 10:14:31;;;;;;;5.32;0.80;;;;;;;;;;5059559;28;20396;-61
2022/06/08 10:17:00;;;;;;;2.70;1.05;;;;;;;;;;5058990;28;20219;-62
2022/06/08 10:19:29;;;;;;;3.83;1.77;;;;;;;;;;5059368;28;20208;-62
2022/06/08 10:21:56;;;;;;;1.77;0.90;;;;;;;;;;5059797;28;20205;-62
2022/06/08 10:24:25;;;;;;;1.23;0.60;;;;;;;;;;5059558;28;20212;-61
2022/06/08 10:26:53;;;;;;;2.47;1.02;;;;;;;;;;5059662;28;20230;-62
2022/06/08 10:29:22;;;;;;;2.25;1.42;;;;;;;;;;5059153;28;20204;-62
2022/06/08 10:31:55;;;;;;;2.38;0.65;;;;;;;;;;5059491;28;20299;-63
2022/06/08 10:34:22;;;;;;;2.92;0.75;;;;;;;;;;5059492;28;20508;-62
2022/06/08 10:36:51;;;;;;;2.17;0.60;;;;;;;;;;5058559;28;20205;-62
2022/06/08 10:39:18;;;;;;;1.25;0.60;;;;;;;;;;5059235;28;20233;-61
2022/06/08 10:44:34;;;;;;;3.25;0.88;;;;;;;;;;5059421;28;20240;-59
2022/06/08 10:47:24;;;;;;;3.30;1.10;;;;;;;;;;5058955;28;20212;-61
2022/06/08 10:49:54;;;;;;;1.90;0.80;;;;;;;;;;5048446;28;20318;-60
2022/06/08 10:52:28;;;;;;;2.50;1.15;;;;;;;;;;5059330;28;20212;-60
2022/06/08 10:54:54;;;;;;;3.83;0.90;;;;;;;;;;5059385;28;20203;-60
2022/06/08 10:57:49;;;;;;;2.85;0.80;;;;;;;;;;5058606;28;20228;-59
2022/06/08 11:00:23;;;;;;;2.42;0.80;;;;;;;;;;5058927;28;20244;-59
2022/06/08 11:02:52;;;;;;;3.15;1.00;;;;;;;;;;5058793;28;20403;-60
2022/06/08 11:05:29;;;;;;;1.10;0.50;;;;;;;;;;5058668;28;20512;-60
2022/06/08 11:08:14;;;;;;;1.58;0.80;;;;;;;;;;5058481;28;20211;-60
2022/06/08 11:10:52;;;;;;;2.83;0.60;;;;;;;;;;5058770;28;20216;-60
2022/06/08 11:13:23;;;;;;;4.07;0.90;;;;;;;;;;5059045;28;20483;-60
2022/06/08 11:15:54;;;;;;;1.98;0.68;;;;;;;;;;5059048;28;20228;-60
2022/06/08 11:18:32;;;;;;;1.52;0.60;;;;;;;;;;5041039;28;20483;-60
2022/06/08 11:21:17;;;;;;;1.50;0.60;;;;;;;;;;5043531;28;20406;-61
2022/06/08 11:23:47;;;;;;;3.25;0.75;;;;;;;;;;5058659;28;20243;-60
2022/06/08 11:26:24;;;;;;;2.65;0.60;;;;;;;;;;5058757;28;20201;-60
2022/06/08 11:28:52;;;;;;;1.20;0.50;;;;;;;;;;5058842;28;20377;-60
2022/06/08 11:31:33;;;;;;;3.78;0.70;;;;;;;;;;5058636;28;20232;-60
2022/06/08 11:34:07;;;;;;;5.18;0.50;;;;;;;;;;5058693;28;20212;-61
2022/06/08 11:36:49;;;;;;;0.95;0.60;;;;;;;;;;5058811;28;20527;-60
2022/06/08 11:39:22;;;;;;;0.68;0.68;;;;;;;;;;5058542;28;20220;-60
2022/06/08 11:41:57;;;;;;;2.70;0.70;;;;;;;;;;5059326;28;20453;-61
2022/06/08 11:44:26;;;;;;;5.93;2.65;;;;;;;;;;5058418;28;20274;-60
2022/06/08 11:47:01;;;;;;;21.67;6.07;;;;;;;;;;5058763;28;20211;-59
2022/06/08 11:49:38;;;;;;;7.68;2.78;;;;;;;;;;5060355;28;20231;-60
2022/06/08 11:52:25;;;;;;;4.55;1.77;;;;;;;;;;5062086;28;20516;-60
2022/06/08 11:55:15;;;;;;;3.50;0.52;;;;;;;;;;5062088;28;20204;-60
2022/06/08 11:57:45;;;;;;;2.35;0.60;;;;;;;;;;5050909;28;20308;-60
2022/06/08 12:00:24;;;;;;;1.75;0.40;;;;;;;;;;5061747;28;20418;-60
2022/06/08 12:02:51;;;;;;;5.63;0.82;;;;;;;;;;5062159;28;20232;-60
2022/06/08 12:05:21;;;;;;;0.93;0.50;;;;;;;;;;5061503;28;20276;-60
2022/06/08 12:07:50;;;;;;;2.65;0.90;;;;;;;;;;5059914;28;20209;-61
2022/06/08 12:10:17;;;;;;;3.38;0.60;;;;;;;;;;5058460;28;20215;-60
2022/06/08 12:12:45;;;;;;;3.30;0.90;;;;;;;;;;5059148;28;20204;-61
2022/06/08 12:15:30;;;;;;;0.82;0.63;;;;;;;;;;5058875;28;20220;-61
2022/06/08 12:17:57;;;;;;;0.93;0.38;;;;;;;;;;5058388;28;20586;-62
2022/06/08 12:20:34;;;;;;;3.22;0.50;;;;;;;;;;5058493;28;20552;-61
2022/06/08 12:23:01;;;;;;;2.15;0.50;;;;;;;;;;5058141;28;20277;-61
2022/06/08 12:25:28;;;;;;;2.45;0.65;;;;;;;;;;5057684;28;20558;-62
2022/06/08 12:27:57;;;;;;;1.58;0.70;;;;;;;;;;5048539;28;20469;-60
2022/06/08 12:30:26;;;;;;;1.45;0.70;;;;;;;;;;5056413;28;20211;-61
2022/06/08 12:32:53;;;;;;;1.55;0.60;;;;;;;;;;5058655;28;20220;-61
2022/06/08 12:35:24;;;;;;;5.35;0.88;;;;;;;;;;5057924;28;20208;-62
2022/06/08 12:38:01;;;;;;;2.58;0.80;;;;;;;;;;5058012;28;20220;-61
2022/06/08 12:40:33;;;;;;;0.77;0.77;;;;;;;;;;5058160;28;20586;-61
2022/06/08 12:43:12;;;;;;;0.90;0.47;;;;;;;;;;5058368;28;20581;-60
2022/06/08 12:45:40;;;;;;;2.40;0.60;;;;;;;;;;5057910;28;20200;-60
2022/06/08 12:48:20;;;;;;;0.98;0.60;;;;;;;;;;5058334;28;20212;-62
2022/06/08 12:50:47;;;;;;;3.80;0.80;;;;;;;;;;5058167;28;20208;-61
2022/06/08 12:53:13;;;;;;;1.42;0.70;;;;;;;;;;5057999;28;20208;-60
2022/06/08 12:55:40;;;;;;;5.78;0.85;;;;;;;;;;5057854;28;20439;-61
2022/06/08 12:58:08;;;;;;;1.35;0.60;;;;;;;;;;5058133;28;20225;-60
2022/06/08 13:00:36;;;;;;;0.70;0.50;;;;;;;;;;5057717;28;20339;-62
2022/06/08 13:03:10;;;;;;;0.95;0.52;;;;;;;;;;5058494;28;20254;-61
2022/06/08 13:05:38;;;;;;;1.25;0.75;;;;;;;;;;5057525;28;20578;-59
2022/06/08 13:08:06;;;;;;;3.40;0.50;;;;;;;;;;5058048;28;20567;-60
2022/06/08 13:10:34;;;;;;;1.85;0.70;;;;;;;;;;5057993;28;20209;-61
2022/06/08 13:13:03;;;;;;;1.70;0.52;;;;;;;;;;5057783;28;20201;-61
2022/06/08 13:15:32;;;;;;;0.80;0.45;;;;;;;;;;5057735;28;20204;-61
2022/06/08 13:18:02;;;;;;;2.53;0.50;;;;;;;;;;5057098;28;20232;-62
2022/06/08 13:20:29;;;;;;;1.63;0.57;;;;;;;;;;5057584;28;20208;-62
2022/06/08 13:22:55;;;;;;;2.80;0.90;;;;;;;;;;5057510;28;20215;-62
2022/06/08 13:25:23;;;;;;;3.65;0.75;;;;;;;;;;5057195;28;20438;-61
2022/06/08 13:27:50;;;;;;;2.85;1.08;;;;;;;;;;5057347;28;20212;-62
2022/06/08 13:30:18;;;;;;;1.85;0.57;;;;;;;;;;5057525;28;20400;-61
2022/06/08 13:32:47;;;;;;;1.23;0.57;;;;;;;;;;5048890;28;20213;-60
2022/06/08 13:35:13;;;;;;;1.13;0.60;;;;;;;;;;5037123;28;20209;-60
2022/06/08 13:37:41;;;;;;;1.98;0.40;;;;;;;;;;5037154;28;20216;-60
2022/06/08 13:40:11;;;;;;;0.98;0.52;;;;;;;;;;5055030;28;20224;-60
2022/06/08 13:42:38;;;;;;;2.75;0.60;;;;;;;;;;5041650;28;20525;-61
2022/06/08 13:45:05;;;;;;;1.35;0.57;;;;;;;;;;5036924;28;20225;-62
2022/06/08 13:47:33;;;;;;;3.42;0.80;;;;;;;;;;5037106;28;20209;-61
2022/06/08 13:50:12;;;;;;;1.10;0.52;;;;;;;;;;5037356;28;20529;-61
2022/06/08 13:52:40;;;;;;;2.35;0.73;;;;;;;;;;5037125;28;20201;-61
2022/06/08 13:55:09;;;;;;;1.50;0.65;;;;;;;;;;5036902;28;20208;-60
2022/06/08 13:57:36;;;;;;;1.52;0.50;;;;;;;;;;5036739;28;20209;-62
2022/06/08 14:00:02;;;;;;;1.38;0.47;;;;;;;;;;5036704;28;20225;-61
2022/06/08 14:02:43;;;;;;;1.85;0.75;;;;;;;;;;5036728;28;20328;-61
2022/06/08 14:05:13;;;;;;;1.33;0.50;;;;;;;;;;5036081;28;20236;-61
2022/06/08 14:13:05;;;;;;;2.13;0.82;;;;;;;;;;5035327;28;20205;-59
2022/06/08 14:15:32;;;;;;;1.23;0.57;;;;;;;;;;5036591;28;20217;-61
2022/06/08 14:17:58;;;;;;;1.83;0.57;;;;;;;;;;5044862;28;20280;-61
2022/06/08 14:20:28;;;;;;;0.65;0.60;;;;;;;;;;5056581;28;20205;-60
2022/06/08 14:22:55;;;;;;;2.30;0.65;;;;;;;;;;5056488;28;20219;-60
2022/06/08 14:25:22;;;;;;;2.80;0.50;;;;;;;;;;5056160;28;20511;-60
2022/06/08 14:27:48;;;;;;;1.30;0.80;;;;;;;;;;5056532;28;20209;-60
2022/06/08 14:30:16;;;;;;;2.00;0.32;;;;;;;;;;5056885;28;20204;-61
2022/06/08 14:32:44;;;;;;;1.48;0.50;;;;;;;;;;5056835;28;20208;-61
2022/06/08 14:35:15;;;;;;;3.50;0.57;;;;;;;;;;5056330;28;20527;-61
2022/06/08 14:37:42;;;;;;;3.22;0.73;;;;;;;;;;5056628;28;20508;-60
2022/06/08 14:40:17;;;;;;;1.30;0.68;;;;;;;;;;5059048;28;20231;-60
2022/06/08 14:42:43;;;;;;;3.35;0.60;;;;;;;;;;5061972;28;20222;-60
2022/06/08 14:45:10;;;;;;;3.40;0.63;;;;;;;;;;5062067;28;20268;-61
2022/06/08 14:47:39;;;;;;;2.97;0.80;;;;;;;;;;5061800;28;20204;-60
2022/06/08 14:50:08;;;;;;;1.58;0.60;;;;;;;;;;5062251;28;20263;-60
2022/06/08 14:52:34;;;;;;;0.90;0.60;;;;;;;;;;5062299;28;20205;-61
2022/06/08 14:55:03;;;;;;;2.17;0.57;;;;;;;;;;5062041;28;20197;-60
2022/06/08 14:57:31;;;;;;;2.53;0.60;;;;;;;;;;5061594;28;20215;-60
2022/06/08 14:59:58;;;;;;;1.48;0.70;;;;;;;;;;5062018;28;20212;-61
2022/06/08 15:02:26;;;;;;;2.75;0.85;;;;;;;;;;5062046;28;20203;-60
2022/06/08 15:04:53;;;;;;;2.58;0.80;;;;;;;;;;5061814;28;20225;-60
2022/06/08 15:07:20;;;;;;;3.35;0.98;;;;;;;;;;5061640;28;20374;-60
2022/06/08 15:09:47;;;;;;;1.80;0.63;;;;;;;;;;5062380;28;20192;-60
2022/06/08 15:12:17;;;;;;;6.50;1.33;;;;;;;;;;5061208;28;20384;-60
2022/06/08 15:14:46;;;;;;;4.20;0.80;;;;;;;;;;5060987;28;20197;-61